createdAt,value
2023-11-30T00:00:02.082Z,96733.73
2023-11-30T00:02:33.154Z,96736.62
2023-11-30T00:05:01.593Z,96736.48
2023-11-30T00:07:29.702Z,96731.13
2023-11-30T00:09:57.768Z,96735.23
2023-11-30T00:12:25.993Z,96734.79
2023-11-30T00:14:54.088Z,96732.48
2023-11-30T00:17:22.418Z,96737.11
2023-11-30T00:19:50.562Z,96732.67
2023-11-30T00:22:18.728Z,96737.83
2023-11-30T00:24:46.834Z,96736.60
2023-11-30T00:27:14.918Z,96736.88
2023-11-30T00:29:42.946Z,96735.98
2023-11-30T00:32:14.321Z,96734.38
2023-11-30T00:34:42.518Z,96731.46
2023-11-30T00:37:12.712Z,96732.92
2023-11-30T00:39:40.866Z,96733.55
2023-11-30T00:42:09.047Z,96733.31
2023-11-30T00:44:38.799Z,96733.73
2023-11-30T00:47:06.975Z,96735.02
2023-11-30T00:49:35.353Z,96734.42
2023-11-30T00:52:03.496Z,96733.38
2023-11-30T00:54:31.586Z,96730.63
2023-11-30T00:56:59.672Z,96731.26
2023-11-30T00:59:27.900Z,96728.58
2023-11-30T01:01:56.384Z,96730.58
2023-11-30T01:04:24.639Z,96730.42
2023-11-30T01:06:53.854Z,96731.73
2023-11-30T01:09:22.100Z,96730.67
2023-11-30T01:11:50.161Z,96727.09
2023-11-30T01:14:18.309Z,96722.02
2023-11-30T01:16:49.569Z,96720.33
2023-11-30T01:19:20.150Z,96719.63
2023-11-30T01:21:48.489Z,96714.77
2023-11-30T01:24:16.760Z,96709.25
2023-11-30T01:26:45.086Z,96708.46
2023-11-30T01:29:13.091Z,96705.38
2023-11-30T01:31:41.278Z,96703.20
2023-11-30T01:34:10.131Z,96701.08
2023-11-30T01:36:38.536Z,96699.48
2023-11-30T01:39:09.082Z,96694.68
2023-11-30T01:41:37.699Z,96696.61
2023-11-30T01:44:06.855Z,96698.49
2023-11-30T01:46:39.829Z,96698.17
2023-11-30T01:49:08.850Z,96702.09
2023-11-30T01:51:37.694Z,96701.21
2023-11-30T01:54:08.435Z,96700.17
2023-11-30T01:56:40.722Z,96700.42
2023-11-30T01:59:10.735Z,96699.98
2023-11-30T02:01:39.022Z,96698.70
2023-11-30T02:04:14.807Z,96696.55
2023-11-30T02:06:46.836Z,96699.98
2023-11-30T02:09:15.303Z,96695.02
2023-11-30T02:11:44.154Z,96694.73
2023-11-30T02:14:13.010Z,96695.06
2023-11-30T02:16:44.472Z,96693.00
2023-11-30T02:19:12.964Z,96687.77
2023-11-30T02:21:55.923Z,96681.73
2023-11-30T02:24:27.132Z,96686.23
2023-11-30T02:26:55.802Z,96685.72
2023-11-30T02:29:23.851Z,96686.19
2023-11-30T02:31:52.837Z,96686.99
2023-11-30T02:34:31.466Z,96685.05
2023-11-30T02:37:03.016Z,96686.35
2023-11-30T02:39:31.175Z,96682.20
2023-11-30T02:42:01.581Z,96682.30
2023-11-30T02:44:29.978Z,96679.38
2023-11-30T02:47:03.890Z,96676.11
2023-11-30T02:49:31.955Z,96675.52
2023-11-30T02:52:02.948Z,96673.86
2023-11-30T02:54:34.261Z,96672.00
2023-11-30T02:57:02.947Z,96672.65
2023-11-30T02:59:32.412Z,96672.80
2023-11-30T03:02:04.013Z,96668.89
2023-11-30T03:04:32.160Z,96671.36
2023-11-30T03:07:00.188Z,96671.17
2023-11-30T03:09:28.413Z,96667.77
2023-11-30T03:11:56.554Z,96673.68
2023-11-30T03:14:25.393Z,96672.16
2023-11-30T03:16:53.568Z,96672.27
2023-11-30T03:19:21.950Z,96665.36
2023-11-30T03:21:55.899Z,96668.38
2023-11-30T03:24:24.309Z,96665.20
2023-11-30T03:26:52.430Z,96665.56
2023-11-30T03:29:20.634Z,96670.31
2023-11-30T03:31:51.668Z,96670.62
2023-11-30T03:34:20.709Z,96672.23
2023-11-30T03:36:48.859Z,96674.96
2023-11-30T03:39:17.125Z,96675.16
2023-11-30T03:41:45.165Z,96676.78
2023-11-30T03:44:13.753Z,96681.39
2023-11-30T03:46:41.940Z,96677.09
2023-11-30T03:49:10.090Z,96672.11
2023-11-30T03:51:38.096Z,96675.55
2023-11-30T03:54:06.324Z,96679.49
2023-11-30T03:56:34.570Z,96677.05
2023-11-30T03:59:02.797Z,96672.90
2023-11-30T04:01:31.064Z,96673.27
2023-11-30T04:03:59.239Z,96673.11
2023-11-30T04:06:27.406Z,96667.60
2023-11-30T04:08:55.812Z,96662.90
2023-11-30T04:11:23.829Z,96658.71
2023-11-30T04:13:52.006Z,96657.74
2023-11-30T04:16:20.496Z,96653.60
2023-11-30T04:18:48.591Z,96655.17
2023-11-30T04:21:16.809Z,96650.48
2023-11-30T04:23:46.264Z,96649.02
2023-11-30T04:26:14.284Z,96651.69
2023-11-30T04:28:42.484Z,96651.57
2023-11-30T04:31:10.794Z,96651.27
2023-11-30T04:33:38.903Z,96645.92
2023-11-30T04:36:07.688Z,96647.59
2023-11-30T04:38:38.811Z,96644.38
2023-11-30T04:41:10.555Z,96646.56
2023-11-30T04:43:38.746Z,96645.31
2023-11-30T04:46:07.101Z,96645.35
2023-11-30T04:48:35.364Z,96643.75
2023-11-30T04:51:04.049Z,96639.52
2023-11-30T04:53:33.412Z,96635.61
2023-11-30T04:56:01.399Z,96634.58
2023-11-30T04:58:29.439Z,96634.09
2023-11-30T05:00:57.724Z,96631.39
2023-11-30T05:03:25.921Z,96629.96
2023-11-30T05:05:56.760Z,96627.89
2023-11-30T05:08:24.764Z,96629.24
2023-11-30T05:10:52.894Z,96627.89
2023-11-30T05:13:20.891Z,96623.65
2023-11-30T05:15:48.989Z,96624.60
2023-11-30T05:18:17.230Z,96622.70
2023-11-30T05:20:45.245Z,96620.10
2023-11-30T05:23:13.535Z,96617.98
2023-11-30T05:25:41.660Z,96618.83
2023-11-30T05:28:09.797Z,96621.20
2023-11-30T05:30:37.981Z,96623.36
2023-11-30T05:33:12.109Z,96621.33
2023-11-30T05:35:40.232Z,96626.48
2023-11-30T05:38:08.600Z,96621.20
2023-11-30T05:40:37.017Z,96624.11
2023-11-30T05:43:05.047Z,96624.58
2023-11-30T05:45:33.350Z,96624.73
2023-11-30T05:48:01.450Z,96625.73
2023-11-30T05:50:29.645Z,96625.58
2023-11-30T05:52:57.935Z,96625.09
2023-11-30T05:55:28.520Z,96623.55
2023-11-30T05:57:56.631Z,96627.45
2023-11-30T06:00:24.877Z,96631.16
2023-11-30T06:02:53.851Z,96630.80
2023-11-30T06:05:22.144Z,96632.27
2023-11-30T06:07:50.223Z,96637.61
2023-11-30T06:10:21.415Z,96640.73
2023-11-30T06:12:54.940Z,96642.33
2023-11-30T06:15:23.301Z,96642.42
2023-11-30T06:17:53.804Z,96643.02
2023-11-30T06:20:22.063Z,96643.44
2023-11-30T06:22:50.124Z,96641.38
2023-11-30T06:25:21.345Z,96643.33
2023-11-30T06:27:49.639Z,96640.52
2023-11-30T06:30:18.291Z,96645.74
2023-11-30T06:32:58.149Z,96642.48
2023-11-30T06:35:29.129Z,96646.09
2023-11-30T06:37:57.387Z,96647.57
2023-11-30T06:40:34.830Z,96647.65
2023-11-30T06:43:02.843Z,96651.48
2023-11-30T06:45:34.366Z,96653.64
2023-11-30T06:48:08.073Z,96652.76
2023-11-30T06:50:36.244Z,96656.16
2023-11-30T06:53:12.404Z,96658.60
2023-11-30T06:55:43.794Z,96664.20
2023-11-30T06:58:12.037Z,96666.70
2023-11-30T07:00:40.607Z,96664.19
2023-11-30T07:03:11.302Z,96663.98
2023-11-30T07:05:39.446Z,96668.70
2023-11-30T07:08:13.038Z,96665.96
2023-11-30T07:10:44.064Z,96667.49
2023-11-30T07:13:12.221Z,96667.25
2023-11-30T07:15:40.833Z,96671.55
2023-11-30T07:18:10.571Z,96678.55
2023-11-30T07:20:39.057Z,96678.34
2023-11-30T07:23:07.538Z,96677.45
2023-11-30T07:25:35.686Z,96683.91
2023-11-30T07:28:05.177Z,96686.11
2023-11-30T07:30:33.992Z,96687.04
2023-11-30T07:33:02.220Z,96689.32
2023-11-30T07:35:30.691Z,96690.69
2023-11-30T07:37:59.189Z,96693.88
2023-11-30T07:40:27.308Z,96694.83
2023-11-30T07:42:55.549Z,96692.40
2023-11-30T07:45:24.781Z,96696.85
2023-11-30T07:47:53.061Z,96698.73
2023-11-30T07:50:21.226Z,96698.69
2023-11-30T07:52:49.895Z,96699.89
2023-11-30T07:55:18.107Z,96697.20
2023-11-30T07:57:47.866Z,96699.36
2023-11-30T08:00:17.094Z,96694.85
2023-11-30T08:02:45.256Z,96687.78
2023-11-30T08:05:13.900Z,96687.20
2023-11-30T08:07:41.950Z,96685.08
2023-11-30T08:10:10.120Z,96680.36
2023-11-30T08:12:38.470Z,96679.86
2023-11-30T08:15:08.247Z,96681.75
2023-11-30T08:17:36.868Z,96679.96
2023-11-30T08:20:05.951Z,96677.52
2023-11-30T08:22:34.179Z,96676.39
2023-11-30T08:25:06.007Z,96673.63
2023-11-30T08:27:37.604Z,96672.17
2023-11-30T08:30:06.820Z,96676.66
2023-11-30T08:32:35.175Z,96678.48
2023-11-30T08:35:03.568Z,96677.77
2023-11-30T08:37:33.135Z,96678.71
2023-11-30T08:40:01.293Z,96678.36
2023-11-30T08:42:29.826Z,96682.73
2023-11-30T08:44:58.035Z,96687.13
2023-11-30T08:47:26.547Z,96688.58
2023-11-30T08:49:54.746Z,96688.59
2023-11-30T08:52:24.714Z,96685.34
2023-11-30T08:54:53.217Z,96684.73
2023-11-30T08:57:21.782Z,96679.59
2023-11-30T08:59:50.014Z,96677.28
2023-11-30T09:02:18.652Z,96678.71
2023-11-30T09:04:46.888Z,96674.38
2023-11-30T09:07:15.104Z,96678.86
2023-11-30T09:09:45.862Z,96675.35
2023-11-30T09:12:16.098Z,96672.83
2023-11-30T09:14:44.511Z,96671.39
2023-11-30T09:17:12.812Z,96665.23
2023-11-30T09:19:41.164Z,96659.85
2023-11-30T09:22:09.499Z,96654.12
2023-11-30T09:24:37.884Z,96650.86
2023-11-30T09:27:06.386Z,96651.70
2023-11-30T09:29:37.264Z,96653.59
2023-11-30T09:32:05.829Z,96648.29
2023-11-30T09:34:34.475Z,96647.71
2023-11-30T09:37:02.637Z,96644.42
2023-11-30T09:39:31.241Z,96645.02
2023-11-30T09:42:10.226Z,96646.14
2023-11-30T09:44:39.096Z,96642.24
2023-11-30T09:47:07.561Z,96636.41
2023-11-30T09:49:36.426Z,96636.67
2023-11-30T09:52:05.111Z,96632.30
2023-11-30T09:54:33.398Z,96622.66
2023-11-30T09:57:02.051Z,96621.88
2023-11-30T09:59:33.381Z,96620.17
2023-11-30T10:02:04.614Z,96608.91
2023-11-30T10:04:35.049Z,96609.09
2023-11-30T10:07:24.228Z,96610.30
2023-11-30T10:09:57.810Z,96611.95
2023-11-30T10:12:39.069Z,96609.86
2023-11-30T10:15:10.853Z,96602.13
2023-11-30T10:17:39.437Z,96600.84
2023-11-30T10:20:28.185Z,96594.31
2023-11-30T10:22:56.439Z,96586.82
2023-11-30T10:25:27.021Z,96578.33
2023-11-30T10:28:11.143Z,96567.55
2023-11-30T10:30:53.320Z,96565.23
2023-11-30T10:34:05.382Z,96561.38
2023-11-30T10:37:22.752Z,96556.25
2023-11-30T10:40:01.843Z,96562.09
2023-11-30T10:42:52.006Z,96556.45
2023-11-30T10:46:05.336Z,96551.83
2023-11-30T10:48:35.399Z,96547.77
2023-11-30T10:51:08.763Z,96553.95
2023-11-30T10:54:04.602Z,96553.61
2023-11-30T10:56:36.415Z,96556.77
2023-11-30T10:59:12.857Z,96560.41
2023-11-30T11:02:01.740Z,96563.87
2023-11-30T11:04:30.644Z,96552.58
2023-11-30T11:07:10.010Z,96549.35
2023-11-30T11:09:44.757Z,96547.78
2023-11-30T11:12:36.651Z,96543.84
2023-11-30T11:15:06.741Z,96541.29
2023-11-30T11:17:34.921Z,96531.98
2023-11-30T11:20:04.458Z,96529.38
2023-11-30T11:22:36.428Z,96529.16
2023-11-30T11:25:07.714Z,96524.20
2023-11-30T11:27:36.148Z,96519.79
2023-11-30T11:30:09.749Z,96515.77
2023-11-30T11:32:45.614Z,96514.54
2023-11-30T11:35:37.179Z,96517.07
2023-11-30T11:38:05.352Z,96514.91
2023-11-30T11:40:49.197Z,96514.35
2023-11-30T11:43:22.260Z,96514.63
2023-11-30T11:46:03.999Z,96518.59
2023-11-30T11:48:32.285Z,96518.84
2023-11-30T11:51:03.415Z,96522.23
2023-11-30T11:53:46.901Z,96510.44
2023-11-30T11:56:15.043Z,96509.00
2023-11-30T11:58:46.044Z,96504.02
2023-11-30T12:01:35.243Z,96503.66
2023-11-30T12:04:05.914Z,96507.02
2023-11-30T12:06:43.513Z,96503.52
2023-11-30T12:09:14.085Z,96499.39
2023-11-30T12:11:42.742Z,96506.16
2023-11-30T12:14:10.988Z,96509.34
2023-11-30T12:16:39.247Z,96510.26
2023-11-30T12:19:09.827Z,96505.62
2023-11-30T12:21:44.412Z,96492.88
2023-11-30T12:24:18.167Z,96485.65
2023-11-30T12:26:46.273Z,96486.33
2023-11-30T12:29:14.747Z,96483.02
2023-11-30T12:32:00.519Z,96487.45
2023-11-30T12:34:34.191Z,96481.56
2023-11-30T12:37:07.986Z,96479.39
2023-11-30T12:39:38.744Z,96469.48
2023-11-30T12:42:30.973Z,96469.34
2023-11-30T12:45:07.315Z,96468.55
2023-11-30T12:47:35.933Z,96466.48
2023-11-30T12:50:33.237Z,96462.66
2023-11-30T12:53:01.958Z,96464.59
2023-11-30T12:55:30.680Z,96460.27
2023-11-30T12:57:59.185Z,96456.02
2023-11-30T13:00:27.733Z,96452.84
2023-11-30T13:02:55.966Z,96453.25
2023-11-30T13:05:24.079Z,96455.45
2023-11-30T13:07:56.339Z,96453.61
2023-11-30T13:10:28.080Z,96450.93
2023-11-30T13:12:56.602Z,96454.79
2023-11-30T13:15:24.919Z,96451.50
2023-11-30T13:17:53.206Z,96450.13
2023-11-30T13:20:21.850Z,96449.29
2023-11-30T13:22:50.029Z,96448.60
2023-11-30T13:25:18.295Z,96449.98
2023-11-30T13:27:47.250Z,96452.27
2023-11-30T13:30:17.716Z,96454.88
2023-11-30T13:32:46.504Z,96448.42
2023-11-30T13:35:14.750Z,96447.45
2023-11-30T13:37:43.018Z,96448.19
2023-11-30T13:40:12.097Z,96444.55
2023-11-30T13:42:40.498Z,96449.33
2023-11-30T13:45:08.992Z,96450.93
2023-11-30T13:47:39.469Z,96455.92
2023-11-30T13:50:19.139Z,96455.85
2023-11-30T13:52:54.366Z,96460.45
2023-11-30T13:55:22.965Z,96461.38
2023-11-30T13:57:51.008Z,96462.61
2023-11-30T14:00:19.257Z,96461.21
2023-11-30T14:02:48.643Z,96461.12
2023-11-30T14:05:17.174Z,96468.42
2023-11-30T14:07:45.242Z,96467.58
2023-11-30T14:10:13.441Z,96468.11
2023-11-30T14:12:41.959Z,96465.02
2023-11-30T14:15:23.087Z,96457.61
2023-11-30T14:17:54.144Z,96459.84
2023-11-30T14:20:22.788Z,96462.92
2023-11-30T14:22:50.915Z,96464.90
2023-11-30T14:25:19.001Z,96469.70
2023-11-30T14:27:47.100Z,96469.06
2023-11-30T14:30:24.718Z,96467.20
2023-11-30T14:32:52.985Z,96463.19
2023-11-30T14:35:33.380Z,96462.51
2023-11-30T14:38:01.958Z,96464.05
2023-11-30T14:40:30.474Z,96467.36
2023-11-30T14:42:58.815Z,96473.37
2023-11-30T14:45:27.353Z,96475.96
2023-11-30T14:47:55.481Z,96478.20
2023-11-30T14:50:26.169Z,96480.12
2023-11-30T14:52:54.807Z,96474.98
2023-11-30T14:55:23.121Z,96472.20
2023-11-30T14:57:51.557Z,96473.56
2023-11-30T15:00:19.926Z,96471.95
2023-11-30T15:02:48.482Z,96472.29
2023-11-30T15:05:16.715Z,96471.30
2023-11-30T15:07:44.915Z,96465.21
2023-11-30T15:10:14.077Z,96463.44
2023-11-30T15:12:42.699Z,96460.95
2023-11-30T15:15:14.473Z,96461.08
2023-11-30T15:17:48.017Z,96457.03
2023-11-30T15:20:17.820Z,96454.98
2023-11-30T15:22:46.996Z,96451.40
2023-11-30T15:25:15.078Z,96448.86
2023-11-30T15:27:43.444Z,96448.48
2023-11-30T15:30:12.576Z,96445.23
2023-11-30T15:32:40.772Z,96445.83
2023-11-30T15:35:09.110Z,96447.25
2023-11-30T15:37:37.193Z,96455.23
2023-11-30T15:40:10.719Z,96460.25
2023-11-30T15:42:38.816Z,96459.07
2023-11-30T15:45:10.350Z,96453.55
2023-11-30T15:47:40.436Z,96461.77
2023-11-30T15:50:08.855Z,96464.30
2023-11-30T15:52:39.267Z,96462.70
2023-11-30T15:55:12.956Z,96453.61
2023-11-30T15:57:46.686Z,96451.51
2023-11-30T16:00:15.955Z,96446.70
2023-11-30T16:02:44.160Z,96444.89
2023-11-30T16:05:15.778Z,96450.34
2023-11-30T16:07:44.048Z,96447.77
2023-11-30T16:10:12.499Z,96440.79
2023-11-30T16:12:43.116Z,96435.64
2023-11-30T16:15:11.476Z,96440.19
2023-11-30T16:17:43.142Z,96444.71
2023-11-30T16:20:12.865Z,96436.95
2023-11-30T16:22:42.024Z,96438.94
2023-11-30T16:25:12.267Z,96451.33
2023-11-30T16:27:42.781Z,96440.50
2023-11-30T16:30:11.707Z,96433.57
2023-11-30T16:32:39.839Z,96433.92
2023-11-30T16:35:09.531Z,96440.48
2023-11-30T16:37:37.898Z,96441.58
2023-11-30T16:40:10.518Z,96434.98
2023-11-30T16:42:38.597Z,96421.14
2023-11-30T16:45:10.137Z,96408.50
2023-11-30T16:47:38.212Z,96407.41
2023-11-30T16:50:07.398Z,96407.09
2023-11-30T16:52:35.507Z,96397.50
2023-11-30T16:55:03.736Z,96386.37
2023-11-30T16:57:31.919Z,96382.89
2023-11-30T17:00:00.436Z,96392.09
2023-11-30T17:02:28.865Z,96399.38
2023-11-30T17:05:00.426Z,96402.63
2023-11-30T17:07:31.602Z,96404.73
2023-11-30T17:09:59.742Z,96408.41
2023-11-30T17:12:30.442Z,96410.19
2023-11-30T17:14:58.552Z,96403.06
2023-11-30T17:17:26.516Z,96399.02
2023-11-30T17:19:54.453Z,96397.77
2023-11-30T17:22:22.707Z,96397.27
2023-11-30T17:24:51.594Z,96399.96
2023-11-30T17:27:19.699Z,96402.11
2023-11-30T17:29:47.987Z,96401.39
2023-11-30T17:32:17.132Z,96392.13
2023-11-30T17:34:47.874Z,96378.48
2023-11-30T17:37:16.373Z,96382.23
2023-11-30T17:39:44.996Z,96380.52
2023-11-30T17:42:13.230Z,96374.81
2023-11-30T17:44:42.512Z,96379.17
2023-11-30T17:47:10.625Z,96384.64
2023-11-30T17:49:39.015Z,96391.96
2023-11-30T17:52:07.305Z,96390.86
2023-11-30T17:54:35.394Z,96396.45
2023-11-30T17:57:03.603Z,96395.21
2023-11-30T17:59:32.119Z,96400.80
2023-11-30T18:02:00.483Z,96389.67
2023-11-30T18:04:29.712Z,96382.36
2023-11-30T18:06:58.217Z,96378.52
2023-11-30T18:09:27.937Z,96375.30
2023-11-30T18:11:56.445Z,96378.71
2023-11-30T18:14:25.150Z,96387.27
2023-11-30T18:16:53.369Z,96383.08
2023-11-30T18:19:21.586Z,96385.40
2023-11-30T18:21:49.605Z,96385.99
2023-11-30T18:24:18.354Z,96375.08
2023-11-30T18:26:48.331Z,96365.55
2023-11-30T18:29:16.642Z,96361.48
2023-11-30T18:31:44.736Z,96354.29
2023-11-30T18:34:12.830Z,96363.02
2023-11-30T18:36:41.101Z,96355.70
2023-11-30T18:39:32.558Z,96352.45
2023-11-30T18:42:00.701Z,96353.02
2023-11-30T18:44:28.740Z,96343.77
2023-11-30T18:46:56.715Z,96332.88
2023-11-30T18:49:24.889Z,96322.98
2023-11-30T18:51:54.973Z,96314.16
2023-11-30T18:54:23.876Z,96306.73
2023-11-30T18:56:52.453Z,96306.08
2023-11-30T18:59:20.484Z,96312.91
2023-11-30T19:01:53.154Z,96319.39
2023-11-30T19:04:21.724Z,96328.35
2023-11-30T19:06:49.863Z,96334.08
2023-11-30T19:09:20.971Z,96344.25
2023-11-30T19:11:49.476Z,96372.33
2023-11-30T19:14:17.444Z,96374.43
2023-11-30T19:16:45.484Z,96373.23
2023-11-30T19:19:14.517Z,96371.89
2023-11-30T19:21:43.382Z,96371.48
2023-11-30T19:24:16.290Z,96370.25
2023-11-30T19:26:45.758Z,96377.00
2023-11-30T19:29:14.049Z,96379.57
2023-11-30T19:31:42.973Z,96385.66
2023-11-30T19:34:11.180Z,96386.58
2023-11-30T19:36:39.829Z,96371.92
2023-11-30T19:39:10.875Z,96345.45
2023-11-30T19:41:46.140Z,96335.09
2023-11-30T19:44:14.326Z,96320.13
2023-11-30T19:46:44.868Z,96328.34
2023-11-30T19:49:12.890Z,96326.33
2023-11-30T19:51:41.065Z,96333.80
2023-11-30T19:54:09.412Z,96331.59
2023-11-30T19:56:37.580Z,96316.21
2023-11-30T19:59:05.633Z,96330.01
2023-11-30T20:01:34.227Z,96341.64
2023-11-30T20:04:02.526Z,96332.21
2023-11-30T20:06:31.582Z,96320.68
2023-11-30T20:08:59.927Z,96315.86
2023-11-30T20:11:28.707Z,96324.10
2023-11-30T20:13:57.179Z,96316.92
2023-11-30T20:16:26.320Z,96301.67
2023-11-30T20:18:54.381Z,96298.08
2023-11-30T20:21:22.916Z,96293.47
2023-11-30T20:23:53.542Z,96286.30
2023-11-30T20:26:21.657Z,96301.46
2023-11-30T20:28:50.078Z,96311.89
2023-11-30T20:31:18.306Z,96321.27
2023-11-30T20:33:47.174Z,96327.34
2023-11-30T20:36:15.277Z,96334.55
2023-11-30T20:38:43.984Z,96333.63
2023-11-30T20:41:12.047Z,96322.88
2023-11-30T20:43:43.220Z,96317.54
2023-11-30T20:46:14.884Z,96312.70
2023-11-30T20:48:43.373Z,96301.36
2023-11-30T20:51:12.538Z,96297.81
2023-11-30T20:53:41.146Z,96302.98
2023-11-30T20:56:09.599Z,96317.09
2023-11-30T20:58:37.632Z,96324.24
2023-11-30T21:01:06.231Z,96333.08
2023-11-30T21:03:34.442Z,96332.86
2023-11-30T21:06:03.566Z,96322.95
2023-11-30T21:08:31.497Z,96315.81
2023-11-30T21:11:01.310Z,96328.45
2023-11-30T21:13:32.025Z,96324.95
2023-11-30T21:16:00.245Z,96323.15
2023-11-30T21:18:28.553Z,96330.71
2023-11-30T21:20:56.704Z,96333.59
2023-11-30T21:23:25.057Z,96330.56
2023-11-30T21:25:54.211Z,96310.11
2023-11-30T21:28:22.421Z,96318.02
2023-11-30T21:30:50.480Z,96328.63
2023-11-30T21:33:19.623Z,96327.42
2023-11-30T21:35:47.692Z,96329.17
2023-11-30T21:38:15.732Z,96323.53
2023-11-30T21:40:44.198Z,96310.77
2023-11-30T21:43:12.793Z,96323.88
2023-11-30T21:45:40.992Z,96326.63
2023-11-30T21:48:09.292Z,96314.77
2023-11-30T21:50:37.324Z,96318.52
2023-11-30T21:53:05.309Z,96314.59
2023-11-30T21:55:33.452Z,96317.92
2023-11-30T21:58:01.512Z,96326.30
2023-11-30T22:00:29.760Z,96327.91
2023-11-30T22:02:59.446Z,96332.95
2023-11-30T22:05:35.742Z,96332.23
2023-11-30T22:08:05.249Z,96332.38
2023-11-30T22:10:33.266Z,96328.16
2023-11-30T22:13:01.211Z,96333.66
2023-11-30T22:15:32.861Z,96333.86
2023-11-30T22:18:00.981Z,96326.23
2023-11-30T22:20:29.024Z,96323.54
2023-11-30T22:22:57.150Z,96315.83
2023-11-30T22:25:25.177Z,96314.44
2023-11-30T22:27:53.333Z,96310.81
2023-11-30T22:30:21.397Z,96304.15
2023-11-30T22:32:49.332Z,96315.61
2023-11-30T22:35:17.617Z,96323.06
2023-11-30T22:37:45.693Z,96331.20
2023-11-30T22:40:13.733Z,96326.98
2023-11-30T22:42:41.869Z,96331.80
2023-11-30T22:45:10.447Z,96329.44
2023-11-30T22:47:38.714Z,96335.91
2023-11-30T22:50:07.936Z,96333.27
2023-11-30T22:52:38.672Z,96321.12
2023-11-30T22:55:07.144Z,96327.46
2023-11-30T22:57:37.772Z,96329.36
2023-11-30T23:00:09.245Z,96318.52
2023-11-30T23:02:37.673Z,96312.56
2023-11-30T23:05:06.081Z,96308.58
2023-11-30T23:07:36.298Z,96307.16
2023-11-30T23:10:08.034Z,96306.38
2023-11-30T23:12:36.194Z,96306.80
2023-11-30T23:15:04.629Z,96315.83
2023-11-30T23:17:32.628Z,96310.92
2023-11-30T23:20:00.758Z,96298.01
2023-11-30T23:22:31.514Z,96292.52
2023-11-30T23:25:09.237Z,96300.41
2023-11-30T23:27:37.371Z,96315.99
2023-11-30T23:30:05.940Z,96321.65
2023-11-30T23:32:34.041Z,96323.90
2023-11-30T23:35:02.042Z,96315.95
2023-11-30T23:37:30.069Z,96311.20
2023-11-30T23:39:58.055Z,96306.30
2023-11-30T23:42:28.344Z,96292.89
2023-11-30T23:44:56.542Z,96299.97
2023-11-30T23:47:24.568Z,96295.70
2023-11-30T23:49:52.610Z,96295.16
2023-11-30T23:52:21.003Z,96300.38
2023-11-30T23:54:48.960Z,96310.43
2023-11-30T23:57:17.038Z,96309.52
2023-11-30T23:59:45.041Z,96313.10
